Terminal Aerodrome Forecast
Issued by NWS

Home | Current Version | Previous Version | Text Only | Print | Product List | Glossary Off
Versions: 1 2 3 4 5 6 7 8 9 10 11 12 13 14 15 16 17 18 19 20 21 22 23 24 25 26 27

000
FTUS43 KABR 250700 AAA
TAFPIR
TAF AMD
KPIR 250702Z 2507/2606 04016KT P6SM SKC
     FM250800 06013KT P6SM VCTS BKN025CB BKN060
     FM251100 06013KT P6SM BKN015 OVC045
     FM252000 10010KT P6SM SCT020=

USA.gov is the U.S. government's official web portal to all federal, state and local government web resources and services.